Adell, WI

4:42 AM CST on December 07, 2016 (GMT -0600)
Flying Field | | Change Station

Elev 807 ft 43.67 °N, 87.94 °W | Updated 4 minutes ago

Clear
Clear
22.7 °F
Feels Like 7 °F
N
22.0
Wind Variable Wind from WSW
Gusts 29.0 mph

Today
High -- | Low -- °F
--% Chance of Precip.
Yesterday
High -- | Low -- °F
Precip. -- in
Pressure 29.90 in
Visibility 10.0 miles
Clouds Clear
Windchill 7 °F
Dew Point 18 °F
Humidity 82%
Rainfall 0.00 in
Snow Depth Not available.
7:11 AM 4:14 PM
Waxing Crescent, 51% visible
METAR KSBM 070953Z AUTO 26018G28KT 10SM CLR M04/M09 A2987 RMK AO2 PK WND 24028/0946 SLP125 T10441089
Pressure 29.90 in
Visibility 10.0 miles
Clouds Clear
Windchill 7 °F
Dew Point 18 °F
Humidity 82%
Rainfall 0.00 in
Snow Depth Not available.
7:11 AM 4:14 PM
Waxing Crescent, 51% visible
METAR KSBM 070953Z AUTO 26018G28KT 10SM CLR M04/M09 A2987 RMK AO2 PK WND 24028/0946 SLP125 T10441089

10-Day Weather Forecast

Almanac

Astronomy

Dec. 07, 2016 Rise Set
Actual Time
Civil Twilight
Nautical Twilight
Astronomical Twilight
Moon
Length of Visible Light
Length of Day
Tomorrow will be .
, % of the Moon is Illuminated

Today's Extremes

State Highs State Lows

Community

WunderPhotos

Upload Photos

1,956,111 photos uploaded!

WunderBlog® & News

Nearby

Air Quality

  Air Quality AQ Index Pollutant
Not available.

Snow Depth

Station Depth Elevation

Earthquake Activity

City Distance Mag. Time & Date
Minimum magnitude displayed is 2.5.

Coastal Water Temperatures

Place Temperature

Stations

Nearby Weather Stations

Station Location Temp. Windchill Dew Point Humidity Wind Precip. Elev Updated Type
                   

Watches & Warnings

There are currently no watches in effect.